sensor_id;sensor_type;location;lat;lon;timestamp;pressure;altitude;pressure_sealevel;temperature
11792;BMP180;5953;52.372;9.918;2024-01-15T00:00:55;98869.00;;;5.80
11792;BMP180;5953;52.372;9.918;2024-01-15T00:03:23;98863.00;;;5.60
11792;BMP180;5953;52.372;9.918;2024-01-15T00:05:51;98868.00;;;5.80
11792;BMP180;5953;52.372;9.918;2024-01-15T00:08:19;98875.00;;;6.00
11792;BMP180;5953;52.372;9.918;2024-01-15T00:10:47;98862.00;;;5.90
11792;BMP180;5953;52.372;9.918;2024-01-15T00:13:15;98866.00;;;6.10
11792;BMP180;5953;52.372;9.918;2024-01-15T00:15:42;98861.00;;;6.10
11792;BMP180;5953;52.372;9.918;2024-01-15T00:18:12;98856.00;;;6.30
11792;BMP180;5953;52.372;9.918;2024-01-15T00:20:40;98848.00;;;6.20
11792;BMP180;5953;52.372;9.918;2024-01-15T00:23:08;98853.00;;;6.10
11792;BMP180;5953;52.372;9.918;2024-01-15T00:25:35;98864.00;;;6.10
11792;BMP180;5953;52.372;9.918;2024-01-15T00:28:04;98856.00;;;5.80
11792;BMP180;5953;52.372;9.918;2024-01-15T00:30:32;98856.00;;;5.80
11792;BMP180;5953;52.372;9.918;2024-01-15T00:33:00;98850.00;;;5.90
11792;BMP180;5953;52.372;9.918;2024-01-15T00:35:29;98851.00;;;5.80
11792;BMP180;5953;52.372;9.918;2024-01-15T00:37:57;98842.00;;;5.90
11792;BMP180;5953;52.372;9.918;2024-01-15T00:40:25;98846.00;;;6.00
11792;BMP180;5953;52.372;9.918;2024-01-15T00:42:53;98833.00;;;6.10
11792;BMP180;5953;52.372;9.918;2024-01-15T00:45:20;98831.00;;;5.90
11792;BMP180;5953;52.372;9.918;2024-01-15T00:47:51;98825.00;;;5.90
11792;BMP180;5953;52.372;9.918;2024-01-15T00:50:19;98819.00;;;5.80
11792;BMP180;5953;52.372;9.918;2024-01-15T00:52:48;98816.00;;;5.60
11792;BMP180;5953;52.372;9.918;2024-01-15T00:55:17;98834.00;;;5.60
11792;BMP180;5953;52.372;9.918;2024-01-15T00:57:44;98822.00;;;5.90
11792;BMP180;5953;52.372;9.918;2024-01-15T01:00:13;98829.00;;;5.50
11792;BMP180;5953;52.372;9.918;2024-01-15T01:02:41;98817.00;;;5.80
11792;BMP180;5953;52.372;9.918;2024-01-15T01:05:09;98817.00;;;5.60
11792;BMP180;5953;52.372;9.918;2024-01-15T01:07:37;98811.00;;;5.70
11792;BMP180;5953;52.372;9.918;2024-01-15T01:10:07;98811.00;;;5.50
11792;BMP180;5953;52.372;9.918;2024-01-15T01:12:35;98820.00;;;5.60
11792;BMP180;5953;52.372;9.918;2024-01-15T01:15:04;98819.00;;;5.80
11792;BMP180;5953;52.372;9.918;2024-01-15T01:17:33;98822.00;;;5.70
11792;BMP180;5953;52.372;9.918;2024-01-15T01:20:01;98812.00;;;5.70
11792;BMP180;5953;52.372;9.918;2024-01-15T01:22:31;98819.00;;;5.60
11792;BMP180;5953;52.372;9.918;2024-01-15T01:24:59;98802.00;;;6.00
11792;BMP180;5953;52.372;9.918;2024-01-15T01:27:28;98808.00;;;5.70
11792;BMP180;5953;52.372;9.918;2024-01-15T01:29:56;98803.00;;;5.80
11792;BMP180;5953;52.372;9.918;2024-01-15T01:32:24;98797.00;;;5.40
11792;BMP180;5953;52.372;9.918;2024-01-15T01:34:52;98797.00;;;5.40
11792;BMP180;5953;52.372;9.918;2024-01-15T01:37:20;98797.00;;;5.60
11792;BMP180;5953;52.372;9.918;2024-01-15T01:39:48;98792.00;;;5.40
11792;BMP180;5953;52.372;9.918;2024-01-15T01:42:15;98791.00;;;5.50
11792;BMP180;5953;52.372;9.918;2024-01-15T01:44:45;98780.00;;;5.60
11792;BMP180;5953;52.372;9.918;2024-01-15T01:47:13;98796.00;;;5.60
11792;BMP180;5953;52.372;9.918;2024-01-15T01:49:42;98783.00;;;5.60
11792;BMP180;5953;52.372;9.918;2024-01-15T01:52:10;98796.00;;;5.60
11792;BMP180;5953;52.372;9.918;2024-01-15T01:54:39;98782.00;;;5.40
11792;BMP180;5953;52.372;9.918;2024-01-15T01:57:08;98770.00;;;5.50
11792;BMP180;5953;52.372;9.918;2024-01-15T01:59:36;98775.00;;;5.80
11792;BMP180;5953;52.372;9.918;2024-01-15T02:02:06;98783.00;;;5.80
11792;BMP180;5953;52.372;9.918;2024-01-15T02:04:34;98781.00;;;5.70
11792;BMP180;5953;52.372;9.918;2024-01-15T02:07:04;98777.00;;;6.00
11792;BMP180;5953;52.372;9.918;2024-01-15T02:09:32;98782.00;;;5.80
11792;BMP180;5953;52.372;9.918;2024-01-15T02:11:59;98783.00;;;5.80
11792;BMP180;5953;52.372;9.918;2024-01-15T02:14:27;98773.00;;;5.80
11792;BMP180;5953;52.372;9.918;2024-01-15T02:16:55;98757.00;;;5.80
11792;BMP180;5953;52.372;9.918;2024-01-15T02:19:25;98753.00;;;5.80
11792;BMP180;5953;52.372;9.918;2024-01-15T02:21:53;98757.00;;;5.70
11792;BMP180;5953;52.372;9.918;2024-01-15T02:24:22;98761.00;;;5.90
11792;BMP180;5953;52.372;9.918;2024-01-15T02:26:50;98764.00;;;5.80
11792;BMP180;5953;52.372;9.918;2024-01-15T02:29:19;98760.00;;;5.80
11792;BMP180;5953;52.372;9.918;2024-01-15T02:31:47;98756.00;;;6.10
11792;BMP180;5953;52.372;9.918;2024-01-15T02:34:15;98749.00;;;6.10
11792;BMP180;5953;52.372;9.918;2024-01-15T02:36:43;98748.00;;;5.90
11792;BMP180;5953;52.372;9.918;2024-01-15T02:39:11;98763.00;;;6.20
11792;BMP180;5953;52.372;9.918;2024-01-15T02:41:42;98748.00;;;6.10
11792;BMP180;5953;52.372;9.918;2024-01-15T02:44:09;98742.00;;;6.40
11792;BMP180;5953;52.372;9.918;2024-01-15T02:46:40;98738.00;;;6.50
11792;BMP180;5953;52.372;9.918;2024-01-15T02:49:08;98746.00;;;6.20
11792;BMP180;5953;52.372;9.918;2024-01-15T02:51:36;98732.00;;;6.30
11792;BMP180;5953;52.372;9.918;2024-01-15T02:54:04;98730.00;;;6.20
11792;BMP180;5953;52.372;9.918;2024-01-15T02:56:32;98742.00;;;6.10
11792;BMP180;5953;52.372;9.918;2024-01-15T02:59:01;98738.00;;;5.70
11792;BMP180;5953;52.372;9.918;2024-01-15T03:01:29;98746.00;;;5.90
11792;BMP180;5953;52.372;9.918;2024-01-15T03:03:56;98749.00;;;5.60
11792;BMP180;5953;52.372;9.918;2024-01-15T03:06:25;98748.00;;;5.70
11792;BMP180;5953;52.372;9.918;2024-01-15T03:08:55;98740.00;;;6.00
11792;BMP180;5953;52.372;9.918;2024-01-15T03:11:23;98747.00;;;6.20
11792;BMP180;5953;52.372;9.918;2024-01-15T03:13:56;98743.00;;;6.10
11792;BMP180;5953;52.372;9.918;2024-01-15T03:16:26;98743.00;;;5.90
11792;BMP180;5953;52.372;9.918;2024-01-15T03:18:54;98748.00;;;6.20
11792;BMP180;5953;52.372;9.918;2024-01-15T03:21:22;98753.00;;;6.10
11792;BMP180;5953;52.372;9.918;2024-01-15T03:23:49;98749.00;;;6.50
11792;BMP180;5953;52.372;9.918;2024-01-15T03:26:17;98754.00;;;6.00
11792;BMP180;5953;52.372;9.918;2024-01-15T03:28:45;98756.00;;;6.10
11792;BMP180;5953;52.372;9.918;2024-01-15T03:31:15;98750.00;;;6.50
11792;BMP180;5953;52.372;9.918;2024-01-15T03:33:45;98760.00;;;6.50
11792;BMP180;5953;52.372;9.918;2024-01-15T03:36:13;98755.00;;;6.40
11792;BMP180;5953;52.372;9.918;2024-01-15T03:38:41;98746.00;;;6.20
11792;BMP180;5953;52.372;9.918;2024-01-15T03:41:09;98736.00;;;6.30
11792;BMP180;5953;52.372;9.918;2024-01-15T03:43:37;98749.00;;;6.30
11792;BMP180;5953;52.372;9.918;2024-01-15T03:46:06;98761.00;;;6.30
11792;BMP180;5953;52.372;9.918;2024-01-15T03:48:35;98762.00;;;6.40
11792;BMP180;5953;52.372;9.918;2024-01-15T03:51:07;98757.00;;;6.70
11792;BMP180;5953;52.372;9.918;2024-01-15T03:53:35;98763.00;;;6.40
11792;BMP180;5953;52.372;9.918;2024-01-15T03:56:03;98772.00;;;6.70
11792;BMP180;5953;52.372;9.918;2024-01-15T03:58:31;98763.00;;;6.50
11792;BMP180;5953;52.372;9.918;2024-01-15T04:00:59;98752.00;;;6.30
11792;BMP180;5953;52.372;9.918;2024-01-15T04:03:27;98754.00;;;6.60
11792;BMP180;5953;52.372;9.918;2024-01-15T04:05:55;98768.00;;;6.40
11792;BMP180;5953;52.372;9.918;2024-01-15T04:08:25;98754.00;;;6.30
11792;BMP180;5953;52.372;9.918;2024-01-15T04:10:53;98775.00;;;6.10
11792;BMP180;5953;52.372;9.918;2024-01-15T04:13:23;98757.00;;;6.50
11792;BMP180;5953;52.372;9.918;2024-01-15T04:15:51;98749.00;;;6.40
11792;BMP180;5953;52.372;9.918;2024-01-15T04:18:19;98750.00;;;6.30
11792;BMP180;5953;52.372;9.918;2024-01-15T04:20:47;98751.00;;;6.40
11792;BMP180;5953;52.372;9.918;2024-01-15T04:23:15;98751.00;;;6.50
11792;BMP180;5953;52.372;9.918;2024-01-15T04:25:44;98751.00;;;5.90
11792;BMP180;5953;52.372;9.918;2024-01-15T04:28:12;98753.00;;;6.20
11792;BMP180;5953;52.372;9.918;2024-01-15T04:30:40;98757.00;;;6.40
11792;BMP180;5953;52.372;9.918;2024-01-15T04:33:08;98758.00;;;6.40
11792;BMP180;5953;52.372;9.918;2024-01-15T04:35:37;98769.00;;;6.50
11792;BMP180;5953;52.372;9.918;2024-01-15T04:38:05;98761.00;;;5.90
11792;BMP180;5953;52.372;9.918;2024-01-15T04:40:32;98765.00;;;5.90
11792;BMP180;5953;52.372;9.918;2024-01-15T04:43:03;98745.00;;;6.10
11792;BMP180;5953;52.372;9.918;2024-01-15T04:45:31;98773.00;;;6.20
11792;BMP180;5953;52.372;9.918;2024-01-15T04:47:59;98760.00;;;6.50
11792;BMP180;5953;52.372;9.918;2024-01-15T04:50:30;98766.00;;;6.30
11792;BMP180;5953;52.372;9.918;2024-01-15T04:52:57;98759.00;;;6.20
11792;BMP180;5953;52.372;9.918;2024-01-15T04:55:25;98773.00;;;6.40
11792;BMP180;5953;52.372;9.918;2024-01-15T04:57:53;98768.00;;;6.50
11792;BMP180;5953;52.372;9.918;2024-01-15T05:00:25;98761.00;;;6.60
11792;BMP180;5953;52.372;9.918;2024-01-15T05:02:53;98759.00;;;6.40
11792;BMP180;5953;52.372;9.918;2024-01-15T05:05:22;98747.00;;;6.60
11792;BMP180;5953;52.372;9.918;2024-01-15T05:07:50;98741.00;;;6.20
11792;BMP180;5953;52.372;9.918;2024-01-15T05:10:18;98750.00;;;6.60
11792;BMP180;5953;52.372;9.918;2024-01-15T05:12:46;98756.00;;;6.20
11792;BMP180;5953;52.372;9.918;2024-01-15T05:15:14;98736.00;;;6.20
11792;BMP180;5953;52.372;9.918;2024-01-15T05:17:43;98740.00;;;6.20
11792;BMP180;5953;52.372;9.918;2024-01-15T05:20:11;98736.00;;;6.20
11792;BMP180;5953;52.372;9.918;2024-01-15T05:22:39;98746.00;;;6.20
11792;BMP180;5953;52.372;9.918;2024-01-15T05:25:07;98729.00;;;6.40
11792;BMP180;5953;52.372;9.918;2024-01-15T05:27:35;98726.00;;;5.90
11792;BMP180;5953;52.372;9.918;2024-01-15T05:30:03;98724.00;;;6.00
11792;BMP180;5953;52.372;9.918;2024-01-15T05:32:32;98731.00;;;6.20
11792;BMP180;5953;52.372;9.918;2024-01-15T05:35:01;98719.00;;;6.20
11792;BMP180;5953;52.372;9.918;2024-01-15T05:37:29;98732.00;;;6.20
11792;BMP180;5953;52.372;9.918;2024-01-15T05:39:57;98726.00;;;6.20
11792;BMP180;5953;52.372;9.918;2024-01-15T05:42:25;98725.00;;;6.20
11792;BMP180;5953;52.372;9.918;2024-01-15T05:44:53;98720.00;;;6.30
11792;BMP180;5953;52.372;9.918;2024-01-15T05:47:21;98726.00;;;5.90
11792;BMP180;5953;52.372;9.918;2024-01-15T05:49:49;98727.00;;;6.10
11792;BMP180;5953;52.372;9.918;2024-01-15T05:52:18;98717.00;;;6.30
11792;BMP180;5953;52.372;9.918;2024-01-15T05:54:47;98724.00;;;6.20
11792;BMP180;5953;52.372;9.918;2024-01-15T05:57:15;98711.00;;;6.00
11792;BMP180;5953;52.372;9.918;2024-01-15T05:59:44;98720.00;;;6.40
11792;BMP180;5953;52.372;9.918;2024-01-15T06:02:12;98736.00;;;6.30
11792;BMP180;5953;52.372;9.918;2024-01-15T06:04:40;98738.00;;;6.20
11792;BMP180;5953;52.372;9.918;2024-01-15T06:07:08;98717.00;;;6.60
11792;BMP180;5953;52.372;9.918;2024-01-15T06:09:37;98729.00;;;6.30
11792;BMP180;5953;52.372;9.918;2024-01-15T06:12:07;98729.00;;;6.00
11792;BMP180;5953;52.372;9.918;2024-01-15T06:14:35;98728.00;;;5.80
11792;BMP180;5953;52.372;9.918;2024-01-15T06:17:03;98732.00;;;6.40
11792;BMP180;5953;52.372;9.918;2024-01-15T06:19:31;98744.00;;;6.30
11792;BMP180;5953;52.372;9.918;2024-01-15T06:21:59;98741.00;;;6.20
11792;BMP180;5953;52.372;9.918;2024-01-15T06:24:27;98738.00;;;5.90
11792;BMP180;5953;52.372;9.918;2024-01-15T06:26:56;98734.00;;;6.10
11792;BMP180;5953;52.372;9.918;2024-01-15T06:29:25;98741.00;;;6.30
11792;BMP180;5953;52.372;9.918;2024-01-15T06:31:53;98742.00;;;6.40
11792;BMP180;5953;52.372;9.918;2024-01-15T06:34:24;98750.00;;;5.90
11792;BMP180;5953;52.372;9.918;2024-01-15T06:36:52;98748.00;;;6.20
11792;BMP180;5953;52.372;9.918;2024-01-15T06:39:20;98747.00;;;6.20
11792;BMP180;5953;52.372;9.918;2024-01-15T06:41:48;98753.00;;;6.30
11792;BMP180;5953;52.372;9.918;2024-01-15T06:44:17;98744.00;;;6.00
11792;BMP180;5953;52.372;9.918;2024-01-15T06:46:47;98741.00;;;6.00
11792;BMP180;5953;52.372;9.918;2024-01-15T06:49:15;98741.00;;;6.00
11792;BMP180;5953;52.372;9.918;2024-01-15T06:51:43;98751.00;;;6.10
11792;BMP180;5953;52.372;9.918;2024-01-15T06:54:15;98754.00;;;6.30
11792;BMP180;5953;52.372;9.918;2024-01-15T06:56:41;98741.00;;;6.30
11792;BMP180;5953;52.372;9.918;2024-01-15T06:59:09;98750.00;;;6.40
11792;BMP180;5953;52.372;9.918;2024-01-15T07:01:38;98744.00;;;6.30
11792;BMP180;5953;52.372;9.918;2024-01-15T07:04:07;98738.00;;;6.40
11792;BMP180;5953;52.372;9.918;2024-01-15T07:06:34;98744.00;;;6.30
11792;BMP180;5953;52.372;9.918;2024-01-15T07:09:02;98746.00;;;6.40
11792;BMP180;5953;52.372;9.918;2024-01-15T07:11:30;98749.00;;;6.40
11792;BMP180;5953;52.372;9.918;2024-01-15T07:13:58;98743.00;;;6.30
11792;BMP180;5953;52.372;9.918;2024-01-15T07:16:26;98746.00;;;6.00
11792;BMP180;5953;52.372;9.918;2024-01-15T07:19:05;98753.00;;;5.80
11792;BMP180;5953;52.372;9.918;2024-01-15T07:21:33;98734.00;;;6.40
11792;BMP180;5953;52.372;9.918;2024-01-15T07:24:01;98745.00;;;6.20
11792;BMP180;5953;52.372;9.918;2024-01-15T07:26:30;98750.00;;;5.80
11792;BMP180;5953;52.372;9.918;2024-01-15T07:28:58;98748.00;;;6.40
11792;BMP180;5953;52.372;9.918;2024-01-15T07:31:26;98755.00;;;6.40
11792;BMP180;5953;52.372;9.918;2024-01-15T07:33:55;98763.00;;;6.40
11792;BMP180;5953;52.372;9.918;2024-01-15T07:36:24;98763.00;;;6.00
11792;BMP180;5953;52.372;9.918;2024-01-15T07:38:52;98754.00;;;6.10
11792;BMP180;5953;52.372;9.918;2024-01-15T07:41:20;98754.00;;;6.40
11792;BMP180;5953;52.372;9.918;2024-01-15T07:43:48;98756.00;;;6.50
11792;BMP180;5953;52.372;9.918;2024-01-15T07:46:16;98761.00;;;6.20
11792;BMP180;5953;52.372;9.918;2024-01-15T07:48:44;98774.00;;;6.30
11792;BMP180;5953;52.372;9.918;2024-01-15T07:51:12;98767.00;;;6.20
11792;BMP180;5953;52.372;9.918;2024-01-15T07:53:41;98771.00;;;6.30
11792;BMP180;5953;52.372;9.918;2024-01-15T07:56:09;98762.00;;;6.20
11792;BMP180;5953;52.372;9.918;2024-01-15T07:58:37;98763.00;;;6.10
11792;BMP180;5953;52.372;9.918;2024-01-15T08:01:05;98767.00;;;6.20
11792;BMP180;5953;52.372;9.918;2024-01-15T08:03:33;98773.00;;;6.40
11792;BMP180;5953;52.372;9.918;2024-01-15T08:06:01;98779.00;;;6.10
11792;BMP180;5953;52.372;9.918;2024-01-15T08:08:29;98772.00;;;6.00
11792;BMP180;5953;52.372;9.918;2024-01-15T08:10:58;98763.00;;;6.00
11792;BMP180;5953;52.372;9.918;2024-01-15T08:13:27;98737.00;;;5.90
11792;BMP180;5953;52.372;9.918;2024-01-15T08:15:55;98775.00;;;5.70
11792;BMP180;5953;52.372;9.918;2024-01-15T08:18:23;98781.00;;;5.50
11792;BMP180;5953;52.372;9.918;2024-01-15T08:20:52;98777.00;;;5.90
11792;BMP180;5953;52.372;9.918;2024-01-15T08:23:20;98783.00;;;5.80
11792;BMP180;5953;52.372;9.918;2024-01-15T08:25:48;98775.00;;;5.60
11792;BMP180;5953;52.372;9.918;2024-01-15T08:28:18;98782.00;;;5.50
11792;BMP180;5953;52.372;9.918;2024-01-15T08:30:46;98787.00;;;5.50
11792;BMP180;5953;52.372;9.918;2024-01-15T08:33:14;98773.00;;;5.50
11792;BMP180;5953;52.372;9.918;2024-01-15T08:35:48;98794.00;;;5.60
11792;BMP180;5953;52.372;9.918;2024-01-15T08:38:16;98795.00;;;5.20
11792;BMP180;5953;52.372;9.918;2024-01-15T08:40:43;98788.00;;;5.60
11792;BMP180;5953;52.372;9.918;2024-01-15T08:43:11;98787.00;;;5.40
11792;BMP180;5953;52.372;9.918;2024-01-15T08:45:40;98805.00;;;5.60
11792;BMP180;5953;52.372;9.918;2024-01-15T08:48:08;98805.00;;;5.30
11792;BMP180;5953;52.372;9.918;2024-01-15T08:50:36;98778.00;;;5.40
11792;BMP180;5953;52.372;9.918;2024-01-15T08:53:04;98794.00;;;5.60
11792;BMP180;5953;52.372;9.918;2024-01-15T08:55:32;98796.00;;;5.60
11792;BMP180;5953;52.372;9.918;2024-01-15T08:58:00;98791.00;;;5.90
11792;BMP180;5953;52.372;9.918;2024-01-15T09:00:28;98784.00;;;6.10
11792;BMP180;5953;52.372;9.918;2024-01-15T09:02:58;98779.00;;;6.00
11792;BMP180;5953;52.372;9.918;2024-01-15T09:05:26;98797.00;;;6.20
11792;BMP180;5953;52.372;9.918;2024-01-15T09:07:54;98791.00;;;6.30
11792;BMP180;5953;52.372;9.918;2024-01-15T09:10:22;98784.00;;;6.10
11792;BMP180;5953;52.372;9.918;2024-01-15T09:12:50;98769.00;;;6.60
11792;BMP180;5953;52.372;9.918;2024-01-15T09:15:18;98786.00;;;6.50
11792;BMP180;5953;52.372;9.918;2024-01-15T09:17:46;98781.00;;;6.10
11792;BMP180;5953;52.372;9.918;2024-01-15T09:20:16;98785.00;;;6.10
11792;BMP180;5953;52.372;9.918;2024-01-15T09:22:43;98786.00;;;6.40
11792;BMP180;5953;52.372;9.918;2024-01-15T09:25:12;98782.00;;;6.20
11792;BMP180;5953;52.372;9.918;2024-01-15T09:27:40;98793.00;;;6.10
11792;BMP180;5953;52.372;9.918;2024-01-15T09:30:09;98777.00;;;6.20
11792;BMP180;5953;52.372;9.918;2024-01-15T09:32:37;98794.00;;;6.10
11792;BMP180;5953;52.372;9.918;2024-01-15T09:35:06;98796.00;;;6.20
11792;BMP180;5953;52.372;9.918;2024-01-15T09:37:35;98809.00;;;6.20
11792;BMP180;5953;52.372;9.918;2024-01-15T09:40:14;98807.00;;;6.40
11792;BMP180;5953;52.372;9.918;2024-01-15T09:42:43;98803.00;;;6.70
11792;BMP180;5953;52.372;9.918;2024-01-15T09:45:13;98799.00;;;6.50
11792;BMP180;5953;52.372;9.918;2024-01-15T09:47:41;98806.00;;;6.40
11792;BMP180;5953;52.372;9.918;2024-01-15T09:50:12;98817.00;;;6.50
11792;BMP180;5953;52.372;9.918;2024-01-15T09:52:43;98797.00;;;6.70
11792;BMP180;5953;52.372;9.918;2024-01-15T09:55:11;98794.00;;;6.90
11792;BMP180;5953;52.372;9.918;2024-01-15T09:57:40;98802.00;;;7.00
11792;BMP180;5953;52.372;9.918;2024-01-15T10:00:09;98801.00;;;7.00
11792;BMP180;5953;52.372;9.918;2024-01-15T10:02:38;98803.00;;;7.00
11792;BMP180;5953;52.372;9.918;2024-01-15T10:05:07;98808.00;;;6.90
11792;BMP180;5953;52.372;9.918;2024-01-15T10:07:36;98806.00;;;7.00
11792;BMP180;5953;52.372;9.918;2024-01-15T10:10:07;98818.00;;;7.20
11792;BMP180;5953;52.372;9.918;2024-01-15T10:12:36;98813.00;;;7.10
11792;BMP180;5953;52.372;9.918;2024-01-15T10:15:04;98816.00;;;6.50
11792;BMP180;5953;52.372;9.918;2024-01-15T10:17:32;98814.00;;;7.00
11792;BMP180;5953;52.372;9.918;2024-01-15T10:20:00;98821.00;;;6.40
11792;BMP180;5953;52.372;9.918;2024-01-15T10:22:31;98824.00;;;6.50
11792;BMP180;5953;52.372;9.918;2024-01-15T10:24:59;98808.00;;;6.60
11792;BMP180;5953;52.372;9.918;2024-01-15T10:27:28;98817.00;;;6.60
11792;BMP180;5953;52.372;9.918;2024-01-15T10:29:59;98826.00;;;6.60
11792;BMP180;5953;52.372;9.918;2024-01-15T10:32:27;98814.00;;;6.90
11792;BMP180;5953;52.372;9.918;2024-01-15T10:34:55;98818.00;;;6.80
11792;BMP180;5953;52.372;9.918;2024-01-15T10:37:24;98818.00;;;6.90
11792;BMP180;5953;52.372;9.918;2024-01-15T10:39:55;98824.00;;;6.80
11792;BMP180;5953;52.372;9.918;2024-01-15T10:42:23;98812.00;;;6.70
11792;BMP180;5953;52.372;9.918;2024-01-15T10:44:52;98808.00;;;6.60
11792;BMP180;5953;52.372;9.918;2024-01-15T10:47:20;98807.00;;;6.50
11792;BMP180;5953;52.372;9.918;2024-01-15T10:49:49;98814.00;;;6.70
11792;BMP180;5953;52.372;9.918;2024-01-15T10:52:18;98816.00;;;6.60
11792;BMP180;5953;52.372;9.918;2024-01-15T10:54:46;98791.00;;;6.80
11792;BMP180;5953;52.372;9.918;2024-01-15T10:57:15;98797.00;;;6.80
11792;BMP180;5953;52.372;9.918;2024-01-15T10:59:43;98795.00;;;6.80
11792;BMP180;5953;52.372;9.918;2024-01-15T11:02:14;98806.00;;;6.70
11792;BMP180;5953;52.372;9.918;2024-01-15T11:04:42;98797.00;;;6.70
11792;BMP180;5953;52.372;9.918;2024-01-15T11:07:11;98804.00;;;6.80
11792;BMP180;5953;52.372;9.918;2024-01-15T11:09:39;98796.00;;;7.10
11792;BMP180;5953;52.372;9.918;2024-01-15T11:12:09;98796.00;;;6.70
11792;BMP180;5953;52.372;9.918;2024-01-15T11:14:44;98802.00;;;6.90
11792;BMP180;5953;52.372;9.918;2024-01-15T11:17:15;98792.00;;;6.90
11792;BMP180;5953;52.372;9.918;2024-01-15T11:19:43;98805.00;;;7.00
11792;BMP180;5953;52.372;9.918;2024-01-15T11:25:14;98793.00;;;7.00
11792;BMP180;5953;52.372;9.918;2024-01-15T11:27:43;98793.00;;;6.80
11792;BMP180;5953;52.372;9.918;2024-01-15T11:30:12;98800.00;;;6.70
11792;BMP180;5953;52.372;9.918;2024-01-15T11:32:45;98794.00;;;6.80
11792;BMP180;5953;52.372;9.918;2024-01-15T11:35:13;98785.00;;;7.00
11792;BMP180;5953;52.372;9.918;2024-01-15T11:37:57;98779.00;;;6.80
11792;BMP180;5953;52.372;9.918;2024-01-15T11:40:39;98787.00;;;7.10
11792;BMP180;5953;52.372;9.918;2024-01-15T11:43:09;98782.00;;;7.00
11792;BMP180;5953;52.372;9.918;2024-01-15T11:45:37;98787.00;;;6.90
11792;BMP180;5953;52.372;9.918;2024-01-15T11:48:13;98774.00;;;7.20
11792;BMP180;5953;52.372;9.918;2024-01-15T11:50:44;98785.00;;;7.30
11792;BMP180;5953;52.372;9.918;2024-01-15T11:53:27;98782.00;;;7.40
11792;BMP180;5953;52.372;9.918;2024-01-15T11:56:02;98783.00;;;6.70
11792;BMP180;5953;52.372;9.918;2024-01-15T11:58:30;98793.00;;;7.40
11792;BMP180;5953;52.372;9.918;2024-01-15T12:00:58;98781.00;;;7.20
11792;BMP180;5953;52.372;9.918;2024-01-15T12:03:28;98776.00;;;7.30
11792;BMP180;5953;52.372;9.918;2024-01-15T12:05:55;98771.00;;;7.10
11792;BMP180;5953;52.372;9.918;2024-01-15T12:08:25;98773.00;;;7.30
11792;BMP180;5953;52.372;9.918;2024-01-15T12:10:53;98776.00;;;7.40
11792;BMP180;5953;52.372;9.918;2024-01-15T12:13:21;98775.00;;;7.10
11792;BMP180;5953;52.372;9.918;2024-01-15T12:15:49;98782.00;;;6.90
11792;BMP180;5953;52.372;9.918;2024-01-15T12:18:18;98776.00;;;6.70
11792;BMP180;5953;52.372;9.918;2024-01-15T12:20:48;98782.00;;;7.00
11792;BMP180;5953;52.372;9.918;2024-01-15T12:23:16;98762.00;;;7.20
11792;BMP180;5953;52.372;9.918;2024-01-15T12:25:45;98768.00;;;7.00
11792;BMP180;5953;52.372;9.918;2024-01-15T12:28:14;98771.00;;;7.10
11792;BMP180;5953;52.372;9.918;2024-01-15T12:30:42;98779.00;;;7.10
11792;BMP180;5953;52.372;9.918;2024-01-15T12:33:17;98776.00;;;7.20
11792;BMP180;5953;52.372;9.918;2024-01-15T12:35:46;98778.00;;;7.10
11792;BMP180;5953;52.372;9.918;2024-01-15T12:38:15;98782.00;;;7.20
11792;BMP180;5953;52.372;9.918;2024-01-15T12:40:46;98779.00;;;7.20
11792;BMP180;5953;52.372;9.918;2024-01-15T12:43:13;98792.00;;;7.40
11792;BMP180;5953;52.372;9.918;2024-01-15T12:45:41;98785.00;;;6.70
11792;BMP180;5953;52.372;9.918;2024-01-15T12:48:09;98773.00;;;7.20
11792;BMP180;5953;52.372;9.918;2024-01-15T12:50:42;98797.00;;;7.00
11792;BMP180;5953;52.372;9.918;2024-01-15T12:53:10;98780.00;;;7.20
11792;BMP180;5953;52.372;9.918;2024-01-15T12:55:40;98780.00;;;7.30
11792;BMP180;5953;52.372;9.918;2024-01-15T12:58:07;98793.00;;;7.50
11792;BMP180;5953;52.372;9.918;2024-01-15T13:00:35;98775.00;;;7.40
11792;BMP180;5953;52.372;9.918;2024-01-15T13:03:04;98771.00;;;7.20
11792;BMP180;5953;52.372;9.918;2024-01-15T13:05:32;98775.00;;;7.30
11792;BMP180;5953;52.372;9.918;2024-01-15T13:08:01;98778.00;;;7.20
11792;BMP180;5953;52.372;9.918;2024-01-15T13:10:30;98780.00;;;7.40
11792;BMP180;5953;52.372;9.918;2024-01-15T13:12:59;98780.00;;;7.20
11792;BMP180;5953;52.372;9.918;2024-01-15T13:15:27;98784.00;;;7.30
11792;BMP180;5953;52.372;9.918;2024-01-15T13:17:55;98775.00;;;7.20
11792;BMP180;5953;52.372;9.918;2024-01-15T13:20:23;98791.00;;;7.30
11792;BMP180;5953;52.372;9.918;2024-01-15T13:22:51;98799.00;;;6.90
11792;BMP180;5953;52.372;9.918;2024-01-15T13:25:19;98800.00;;;7.10
11792;BMP180;5953;52.372;9.918;2024-01-15T13:27:47;98792.00;;;7.10
11792;BMP180;5953;52.372;9.918;2024-01-15T13:30:17;98801.00;;;7.20
11792;BMP180;5953;52.372;9.918;2024-01-15T13:32:45;98791.00;;;6.50
11792;BMP180;5953;52.372;9.918;2024-01-15T13:35:13;98784.00;;;6.80
11792;BMP180;5953;52.372;9.918;2024-01-15T13:37:41;98788.00;;;6.90
11792;BMP180;5953;52.372;9.918;2024-01-15T13:40:10;98781.00;;;6.70
11792;BMP180;5953;52.372;9.918;2024-01-15T13:42:44;98779.00;;;7.00
11792;BMP180;5953;52.372;9.918;2024-01-15T13:45:12;98788.00;;;6.90
11792;BMP180;5953;52.372;9.918;2024-01-15T13:47:42;98777.00;;;7.00
11792;BMP180;5953;52.372;9.918;2024-01-15T13:50:11;98787.00;;;7.20
11792;BMP180;5953;52.372;9.918;2024-01-15T13:52:39;98779.00;;;7.20
11792;BMP180;5953;52.372;9.918;2024-01-15T13:55:07;98793.00;;;6.70
11792;BMP180;5953;52.372;9.918;2024-01-15T13:57:36;98794.00;;;6.40
11792;BMP180;5953;52.372;9.918;2024-01-15T14:00:05;98794.00;;;6.70
11792;BMP180;5953;52.372;9.918;2024-01-15T14:02:38;98794.00;;;6.40
11792;BMP180;5953;52.372;9.918;2024-01-15T14:05:07;98793.00;;;6.60
11792;BMP180;5953;52.372;9.918;2024-01-15T14:07:38;98804.00;;;6.60
11792;BMP180;5953;52.372;9.918;2024-01-15T14:10:06;98806.00;;;6.50
11792;BMP180;5953;52.372;9.918;2024-01-15T14:12:34;98813.00;;;6.90
11792;BMP180;5953;52.372;9.918;2024-01-15T14:15:04;98818.00;;;6.70
11792;BMP180;5953;52.372;9.918;2024-01-15T14:17:32;98807.00;;;6.60
11792;BMP180;5953;52.372;9.918;2024-01-15T14:20:00;98815.00;;;6.60
11792;BMP180;5953;52.372;9.918;2024-01-15T14:22:33;98810.00;;;6.70
11792;BMP180;5953;52.372;9.918;2024-01-15T14:25:00;98807.00;;;6.50
11792;BMP180;5953;52.372;9.918;2024-01-15T14:27:29;98810.00;;;6.90
11792;BMP180;5953;52.372;9.918;2024-01-15T14:29:56;98805.00;;;6.70
11792;BMP180;5953;52.372;9.918;2024-01-15T14:32:27;98805.00;;;6.80
11792;BMP180;5953;52.372;9.918;2024-01-15T14:34:55;98810.00;;;6.90
11792;BMP180;5953;52.372;9.918;2024-01-15T14:37:23;98811.00;;;6.80
11792;BMP180;5953;52.372;9.918;2024-01-15T14:39:53;98820.00;;;6.70
11792;BMP180;5953;52.372;9.918;2024-01-15T14:42:20;98813.00;;;6.80
11792;BMP180;5953;52.372;9.918;2024-01-15T14:44:48;98830.00;;;6.70